createdAt,value
2018-07-08T00:00:28.512Z,63.83
2018-07-08T00:01:33.594Z,63.74
2018-07-08T00:02:39.872Z,63.80
2018-07-08T00:03:50.023Z,63.68
2018-07-08T00:04:55.746Z,63.83
2018-07-08T00:06:05.003Z,63.69
2018-07-08T00:07:12.485Z,63.80
2018-07-08T00:08:18.666Z,64.10
2018-07-08T00:09:26.792Z,64.01
2018-07-08T00:10:33.745Z,64.07
2018-07-08T00:11:38.841Z,63.74
2018-07-08T00:12:45.163Z,64.06
2018-07-08T00:13:50.710Z,63.75
2018-07-08T00:14:55.542Z,63.86
2018-07-08T00:16:00.483Z,63.98
2018-07-08T00:17:05.455Z,63.94
2018-07-08T00:18:10.444Z,63.96
2018-07-08T00:19:15.269Z,63.91
2018-07-08T00:20:20.475Z,63.80
2018-07-08T00:21:26.386Z,63.96
2018-07-08T00:22:35.529Z,64.29
2018-07-08T00:23:41.782Z,64.73
2018-07-08T00:24:50.063Z,64.83
2018-07-08T00:25:56.060Z,65.04
2018-07-08T00:27:01.069Z,65.53
2018-07-08T00:28:05.858Z,65.33
2018-07-08T00:29:13.224Z,65.46
2018-07-08T00:30:18.185Z,65.39
2018-07-08T00:31:24.945Z,65.71
2018-07-08T00:32:30.443Z,65.66
2018-07-08T00:33:36.699Z,65.76
2018-07-08T00:34:43.634Z,66.01
2018-07-08T00:35:49.622Z,66.15
2018-07-08T00:36:55.093Z,66.27
2018-07-08T00:38:00.402Z,66.01
2018-07-08T00:39:05.545Z,66.47
2018-07-08T00:40:10.505Z,66.87
2018-07-08T00:41:16.362Z,67.09
2018-07-08T00:42:21.153Z,67.45
2018-07-08T00:43:25.962Z,67.57
2018-07-08T00:44:31.730Z,67.45
2018-07-08T00:45:36.873Z,67.75
2018-07-08T00:46:41.449Z,68.00
2018-07-08T00:47:47.523Z,67.91
2018-07-08T00:48:52.367Z,68.01
2018-07-08T00:49:59.192Z,68.45
2018-07-08T00:51:05.555Z,68.64
2018-07-08T00:52:11.318Z,68.76
2018-07-08T00:53:16.401Z,68.74
2018-07-08T00:54:21.645Z,68.91
2018-07-08T00:55:29.515Z,69.07
2018-07-08T00:56:35.586Z,69.35
2018-07-08T00:57:40.382Z,69.26
2018-07-08T00:58:47.460Z,69.20
2018-07-08T00:59:52.594Z,68.96
2018-07-08T01:01:01.756Z,68.78
2018-07-08T01:02:07.316Z,68.86
2018-07-08T01:03:12.192Z,68.93
2018-07-08T01:04:17.220Z,69.01
2018-07-08T01:05:22.651Z,68.68
2018-07-08T01:06:27.761Z,68.66
2018-07-08T01:07:32.882Z,68.65
2018-07-08T01:08:39.973Z,69.05
2018-07-08T01:09:45.265Z,68.99
2018-07-08T01:10:51.504Z,68.76
2018-07-08T01:11:57.125Z,68.89
2018-07-08T01:13:03.045Z,68.71
2018-07-08T01:14:08.277Z,69.16
2018-07-08T01:15:21.195Z,68.98
2018-07-08T01:16:26.179Z,68.76
2018-07-08T01:17:31.729Z,68.99
2018-07-08T01:18:37.165Z,68.63
2018-07-08T01:19:42.780Z,68.52
2018-07-08T01:20:49.081Z,69.08
2018-07-08T01:21:53.589Z,68.85
2018-07-08T01:22:58.126Z,68.93
2018-07-08T01:24:02.594Z,68.60
2018-07-08T01:25:10.190Z,68.68
2018-07-08T01:26:15.098Z,68.92
2018-07-08T01:27:19.656Z,68.74
2018-07-08T01:28:24.143Z,68.74
2018-07-08T01:29:29.247Z,68.85
2018-07-08T01:30:33.760Z,68.90
2018-07-08T01:31:38.960Z,68.98
2018-07-08T01:32:43.737Z,68.83
2018-07-08T01:33:48.373Z,68.96
2018-07-08T01:34:53.019Z,69.24
2018-07-08T01:35:58.555Z,69.19
2018-07-08T01:37:03.886Z,69.01
2018-07-08T01:38:08.483Z,69.20
2018-07-08T01:39:13.428Z,69.18
2018-07-08T01:40:18.028Z,69.31
2018-07-08T01:41:22.640Z,69.39
2018-07-08T01:42:27.562Z,69.48
2018-07-08T01:43:34.115Z,69.59
2018-07-08T01:44:39.332Z,69.62
2018-07-08T01:45:44.420Z,69.27
2018-07-08T01:46:49.947Z,69.79
2018-07-08T01:47:54.543Z,69.68
2018-07-08T01:48:59.179Z,70.10
2018-07-08T01:50:03.837Z,69.68
2018-07-08T01:51:08.370Z,69.82
2018-07-08T01:52:13.184Z,69.96
2018-07-08T01:53:17.655Z,69.86
2018-07-08T01:54:22.181Z,70.18
2018-07-08T01:55:26.693Z,70.37
2018-07-08T01:56:31.289Z,70.64
2018-07-08T01:57:35.852Z,70.43
2018-07-08T01:58:40.685Z,70.46
2018-07-08T01:59:45.234Z,70.44
2018-07-08T02:00:49.828Z,70.72
2018-07-08T02:01:55.320Z,70.54
2018-07-08T02:03:00.911Z,70.75
2018-07-08T02:04:06.980Z,70.70
2018-07-08T02:05:12.738Z,71.02
2018-07-08T02:06:17.345Z,71.19
2018-07-08T02:07:21.941Z,71.35
2018-07-08T02:08:26.627Z,71.46
2018-07-08T02:09:31.292Z,71.56
2018-07-08T02:10:36.866Z,71.23
2018-07-08T02:11:41.820Z,71.55
2018-07-08T02:12:46.467Z,71.30
2018-07-08T02:13:51.522Z,71.51
2018-07-08T02:14:56.189Z,71.34
2018-07-08T02:16:00.830Z,71.06
2018-07-08T02:17:05.457Z,71.33
2018-07-08T02:18:10.113Z,71.79
2018-07-08T02:19:14.807Z,71.90
2018-07-08T02:20:19.428Z,71.95
2018-07-08T02:21:24.088Z,71.86
2018-07-08T02:22:29.796Z,72.02
2018-07-08T02:23:35.659Z,72.00
2018-07-08T02:24:40.584Z,72.12
2018-07-08T02:25:49.234Z,72.01
2018-07-08T02:26:53.983Z,72.15
2018-07-08T02:27:58.568Z,72.02
2018-07-08T02:29:03.258Z,72.01
2018-07-08T02:30:08.224Z,71.90
2018-07-08T02:31:13.099Z,71.91
2018-07-08T02:32:18.628Z,72.09
2018-07-08T02:33:23.280Z,72.12
2018-07-08T02:34:27.863Z,71.99
2018-07-08T02:35:32.460Z,72.09
2018-07-08T02:36:37.570Z,72.13
2018-07-08T02:37:43.191Z,72.14
2018-07-08T02:38:47.826Z,72.09
2018-07-08T02:39:52.501Z,72.00
2018-07-08T02:40:57.191Z,71.84
2018-07-08T02:42:01.939Z,71.86
2018-07-08T02:43:07.106Z,71.79
2018-07-08T02:44:11.868Z,71.96
2018-07-08T02:45:16.519Z,71.93
2018-07-08T02:46:21.207Z,71.96
2018-07-08T02:47:26.021Z,71.97
2018-07-08T02:48:30.664Z,71.90
2018-07-08T02:49:35.772Z,72.36
2018-07-08T02:50:40.426Z,72.07
2018-07-08T02:51:45.150Z,72.20
2018-07-08T02:52:49.831Z,72.24
2018-07-08T02:53:54.508Z,72.16
2018-07-08T02:54:59.083Z,72.33
2018-07-08T02:56:04.092Z,72.30
2018-07-08T02:57:08.719Z,72.35
2018-07-08T02:58:13.429Z,72.33
2018-07-08T02:59:18.231Z,72.35
2018-07-08T03:00:23.274Z,72.38
2018-07-08T03:01:27.907Z,72.72
2018-07-08T03:02:32.985Z,72.77
2018-07-08T03:03:37.579Z,72.82
2018-07-08T03:04:42.188Z,72.70
2018-07-08T03:05:46.795Z,72.82
2018-07-08T03:06:51.459Z,72.78
2018-07-08T03:07:56.104Z,72.72
2018-07-08T03:09:01.106Z,73.04
2018-07-08T03:10:05.827Z,73.08
2018-07-08T03:11:10.517Z,72.98
2018-07-08T03:12:15.180Z,73.18
2018-07-08T03:13:19.835Z,73.30
2018-07-08T03:14:24.551Z,73.27
2018-07-08T03:15:30.367Z,73.50
2018-07-08T03:16:35.013Z,73.58
2018-07-08T03:17:39.678Z,73.62
2018-07-08T03:18:44.336Z,73.61
2018-07-08T03:19:48.860Z,73.58
2018-07-08T03:20:53.431Z,73.55
2018-07-08T03:21:58.373Z,73.50
2018-07-08T03:23:02.920Z,73.68
2018-07-08T03:24:07.449Z,73.86
2018-07-08T03:25:12.440Z,74.22
2018-07-08T03:26:16.929Z,74.52
2018-07-08T03:27:21.519Z,74.83
2018-07-08T03:28:26.612Z,74.95
2018-07-08T03:29:31.250Z,75.05
2018-07-08T03:30:35.839Z,75.17
2018-07-08T03:31:40.456Z,75.37
2018-07-08T03:32:45.044Z,75.41
2018-07-08T03:33:49.663Z,75.45
2018-07-08T03:34:54.746Z,75.67
2018-07-08T03:35:59.382Z,75.33
2018-07-08T03:37:04.015Z,75.39
2018-07-08T03:38:08.639Z,75.40
2018-07-08T03:39:13.247Z,75.54
2018-07-08T03:40:17.882Z,75.77
2018-07-08T03:41:22.928Z,75.54
2018-07-08T03:42:27.628Z,75.42
2018-07-08T03:43:32.269Z,75.50
2018-07-08T03:44:36.884Z,75.29
2018-07-08T03:45:41.687Z,75.28
2018-07-08T03:46:46.326Z,75.04
2018-07-08T03:47:51.258Z,74.98
2018-07-08T03:48:55.939Z,74.99
2018-07-08T03:50:00.488Z,74.91
2018-07-08T03:51:05.131Z,74.77
2018-07-08T03:52:09.791Z,74.87
2018-07-08T03:53:14.428Z,75.12
2018-07-08T03:54:26.210Z,74.94
2018-07-08T03:55:30.950Z,75.16
2018-07-08T03:56:35.530Z,75.23
2018-07-08T03:57:40.160Z,75.22
2018-07-08T03:58:44.808Z,75.34
2018-07-08T03:59:49.436Z,75.42
2018-07-08T04:00:54.420Z,75.39
2018-07-08T04:01:59.046Z,75.47
2018-07-08T04:03:03.663Z,75.40
2018-07-08T04:04:08.901Z,75.36
2018-07-08T04:05:13.477Z,75.41
2018-07-08T04:06:18.097Z,75.40
2018-07-08T04:07:23.140Z,75.11
2018-07-08T04:08:27.737Z,75.28
2018-07-08T04:09:32.327Z,75.23
2018-07-08T04:10:36.958Z,74.99
2018-07-08T04:11:41.550Z,75.13
2018-07-08T04:12:46.159Z,74.88
2018-07-08T04:13:51.297Z,74.94
2018-07-08T04:14:55.918Z,74.74
2018-07-08T04:16:00.543Z,74.78
2018-07-08T04:17:05.175Z,74.65
2018-07-08T04:18:10.233Z,74.51
2018-07-08T04:19:14.921Z,74.71
2018-07-08T04:20:19.896Z,74.81
2018-07-08T04:21:24.506Z,74.61
2018-07-08T04:22:29.208Z,74.56
2018-07-08T04:23:33.843Z,74.53
2018-07-08T04:24:38.419Z,74.50
2018-07-08T04:25:43.017Z,74.62
2018-07-08T04:26:48.482Z,74.64
2018-07-08T04:27:53.064Z,74.73
2018-07-08T04:28:57.639Z,74.89
2018-07-08T04:30:02.305Z,75.17
2018-07-08T04:31:07.372Z,75.05
2018-07-08T04:32:12.126Z,75.29
2018-07-08T04:33:17.063Z,75.48
2018-07-08T04:34:21.649Z,75.41
2018-07-08T04:35:26.399Z,75.58
2018-07-08T04:36:31.017Z,75.63
2018-07-08T04:37:35.695Z,75.59
2018-07-08T04:38:40.348Z,75.52
2018-07-08T04:39:44.906Z,75.41
2018-07-08T04:40:49.482Z,75.36
2018-07-08T04:41:55.038Z,75.26
2018-07-08T04:42:59.692Z,75.32
2018-07-08T04:44:04.550Z,75.17
2018-07-08T04:45:09.125Z,75.19
2018-07-08T04:46:14.939Z,75.17
2018-07-08T04:47:19.726Z,75.28
2018-07-08T04:48:25.160Z,75.20
2018-07-08T04:49:29.795Z,75.43
2018-07-08T04:50:34.362Z,75.03
2018-07-08T04:51:38.949Z,75.02
2018-07-08T04:52:44.532Z,75.03
2018-07-08T04:53:49.918Z,74.97
2018-07-08T04:54:54.488Z,75.19
2018-07-08T04:55:59.091Z,75.27
2018-07-08T04:57:03.735Z,74.97
2018-07-08T04:58:08.440Z,75.13
2018-07-08T04:59:13.367Z,75.04
2018-07-08T05:00:18.058Z,74.94
2018-07-08T05:01:23.031Z,74.97
2018-07-08T05:02:27.625Z,75.46
2018-07-08T05:03:32.252Z,75.56
2018-07-08T05:04:36.830Z,75.92
2018-07-08T05:05:41.763Z,76.16
2018-07-08T05:06:46.369Z,76.10
2018-07-08T05:07:51.023Z,75.95
2018-07-08T05:08:55.661Z,76.07
2018-07-08T05:10:00.286Z,76.26
2018-07-08T05:11:05.079Z,76.70
2018-07-08T05:12:10.030Z,76.49
2018-07-08T05:13:15.511Z,76.34
2018-07-08T05:14:20.143Z,76.87
2018-07-08T05:15:25.329Z,76.97
2018-07-08T05:16:29.918Z,76.78
2018-07-08T05:17:34.577Z,76.73
2018-07-08T05:18:39.462Z,76.66
2018-07-08T05:19:44.191Z,76.57
2018-07-08T05:20:48.795Z,76.44
2018-07-08T05:21:53.445Z,76.44
2018-07-08T05:22:58.099Z,76.23
2018-07-08T05:24:02.723Z,76.25
2018-07-08T05:25:08.094Z,76.26
2018-07-08T05:26:12.837Z,76.13
2018-07-08T05:27:17.495Z,76.32
2018-07-08T05:28:22.080Z,76.26
2018-07-08T05:29:26.676Z,76.25
2018-07-08T05:30:31.289Z,76.07
2018-07-08T05:31:36.165Z,76.06
2018-07-08T05:32:40.786Z,75.95
2018-07-08T05:33:45.423Z,76.04
2018-07-08T05:34:51.026Z,75.66
2018-07-08T05:35:56.064Z,75.72
2018-07-08T05:37:01.596Z,75.27
2018-07-08T05:38:07.228Z,75.24
2018-07-08T05:39:12.615Z,75.22
2018-07-08T05:40:17.243Z,74.83
2018-07-08T05:41:21.849Z,74.69
2018-07-08T05:42:26.895Z,74.59
2018-07-08T05:43:31.567Z,74.35
2018-07-08T05:44:36.491Z,74.17
2018-07-08T05:45:41.162Z,74.02
2018-07-08T05:46:46.707Z,73.90
2018-07-08T05:47:51.378Z,73.85
2018-07-08T05:48:56.013Z,73.96
2018-07-08T05:50:00.643Z,74.03
2018-07-08T05:51:06.489Z,73.85
2018-07-08T05:52:12.345Z,73.58
2018-07-08T05:53:18.869Z,73.69
2018-07-08T05:54:24.352Z,73.51
2018-07-08T05:55:29.279Z,73.94
2018-07-08T05:56:33.913Z,73.43
2018-07-08T05:57:40.416Z,72.98
2018-07-08T05:58:45.075Z,72.88
2018-07-08T05:59:49.651Z,72.70
2018-07-08T06:00:54.310Z,72.78
2018-07-08T06:01:59.549Z,72.55
2018-07-08T06:03:05.801Z,72.73
2018-07-08T06:04:10.694Z,72.32
2018-07-08T06:05:15.343Z,72.28
2018-07-08T06:06:21.620Z,71.70
2018-07-08T06:07:26.434Z,71.50
2018-07-08T06:08:31.021Z,71.40
2018-07-08T06:09:36.375Z,71.37
2018-07-08T06:10:42.123Z,71.24
2018-07-08T06:11:46.597Z,70.72
2018-07-08T06:12:51.831Z,70.90
2018-07-08T06:13:56.999Z,70.53
2018-07-08T06:15:01.476Z,70.75
2018-07-08T06:16:06.660Z,70.38
2018-07-08T06:17:12.648Z,70.47
2018-07-08T06:18:19.760Z,70.32
2018-07-08T06:19:24.542Z,70.07
2018-07-08T06:20:29.770Z,70.29
2018-07-08T06:21:34.239Z,69.89
2018-07-08T06:22:40.141Z,69.68
2018-07-08T06:23:44.668Z,69.35
2018-07-08T06:24:49.567Z,69.14
2018-07-08T06:25:55.092Z,69.14
2018-07-08T06:26:59.639Z,69.18
2018-07-08T06:28:04.163Z,68.87
2018-07-08T06:29:09.606Z,69.09
2018-07-08T06:30:14.136Z,68.75
2018-07-08T06:31:18.786Z,68.86
2018-07-08T06:32:23.705Z,68.51
2018-07-08T06:33:28.323Z,68.53
2018-07-08T06:34:33.014Z,68.20
2018-07-08T06:35:37.963Z,68.26
2018-07-08T06:36:42.677Z,68.25
2018-07-08T06:37:48.294Z,67.96
2018-07-08T06:38:52.947Z,67.74
2018-07-08T06:39:59.214Z,67.61
2018-07-08T06:41:03.879Z,67.56
2018-07-08T06:42:08.875Z,67.43
2018-07-08T06:43:13.516Z,67.56
2018-07-08T06:44:18.143Z,67.17
2018-07-08T06:45:22.849Z,67.18
2018-07-08T06:46:27.491Z,66.99
2018-07-08T06:47:33.542Z,66.60
2018-07-08T06:48:38.487Z,66.53
2018-07-08T06:49:44.774Z,66.22
2018-07-08T06:50:50.514Z,66.44
2018-07-08T06:51:56.010Z,66.26
2018-07-08T06:53:00.660Z,66.09
2018-07-08T06:54:05.379Z,65.64
2018-07-08T06:55:10.354Z,65.45
2018-07-08T06:56:14.977Z,64.88
2018-07-08T06:57:20.284Z,64.87
2018-07-08T06:58:24.939Z,64.67
2018-07-08T06:59:49.309Z,64.50
2018-07-08T07:00:57.726Z,63.96
2018-07-08T07:02:03.374Z,63.62
2018-07-08T07:03:09.035Z,63.62
2018-07-08T07:04:14.469Z,63.79
2018-07-08T07:05:19.584Z,63.55
2018-07-08T07:07:48.352Z,63.05
2018-07-08T07:08:54.390Z,62.90
2018-07-08T07:10:01.698Z,62.65
2018-07-08T07:11:08.783Z,61.91
2018-07-08T07:12:13.443Z,61.38
2018-07-08T07:13:21.050Z,61.35
2018-07-08T07:14:32.147Z,60.69
2018-07-08T07:15:38.362Z,60.37
2018-07-08T07:16:44.253Z,60.50
2018-07-08T07:17:48.842Z,60.49
2018-07-08T07:18:54.339Z,60.29
2018-07-08T07:19:59.642Z,59.64
2018-07-08T07:21:06.312Z,59.69
2018-07-08T07:22:12.885Z,58.30
2018-07-08T07:23:18.220Z,58.68
2018-07-08T07:24:22.854Z,58.76
2018-07-08T07:25:29.045Z,58.29
2018-07-08T07:26:35.184Z,58.14
2018-07-08T07:27:54.746Z,57.72
2018-07-08T07:29:08.650Z,57.36
2018-07-08T07:30:14.318Z,57.39
2018-07-08T07:31:38.272Z,57.05
2018-07-08T07:32:47.162Z,56.67
2018-07-08T07:33:53.511Z,56.57
2018-07-08T07:34:59.291Z,56.08
2018-07-08T07:36:07.371Z,55.85
2018-07-08T07:37:12.747Z,55.80
2018-07-08T07:38:34.707Z,55.18
2018-07-08T07:39:43.773Z,55.08
2018-07-08T07:41:02.216Z,54.64
2018-07-08T07:42:15.358Z,54.54
2018-07-08T07:43:26.650Z,54.22
2018-07-08T07:44:34.652Z,54.02
2018-07-08T07:45:41.347Z,54.35
2018-07-08T07:46:50.658Z,54.12
2018-07-08T07:47:56.132Z,54.09
2018-07-08T07:49:01.432Z,54.20
2018-07-08T07:50:09.729Z,53.73
2018-07-08T07:51:17.072Z,53.95
2018-07-08T07:52:25.007Z,53.60
2018-07-08T07:53:31.738Z,53.57
2018-07-08T07:54:37.719Z,54.04
2018-07-08T07:55:42.330Z,53.78
2018-07-08T07:56:47.864Z,53.89
2018-07-08T07:57:56.112Z,53.16
2018-07-08T07:59:00.754Z,53.08
2018-07-08T08:00:05.941Z,52.82
2018-07-08T08:01:13.404Z,52.21
2018-07-08T08:02:17.990Z,52.13
2018-07-08T08:03:22.667Z,52.27
2018-07-08T08:04:28.030Z,51.94
2018-07-08T08:05:36.871Z,51.22
2018-07-08T08:06:41.521Z,51.25
2018-07-08T08:07:47.934Z,50.76
2018-07-08T08:08:52.540Z,50.61
2018-07-08T08:10:00.762Z,50.12
2018-07-08T08:11:05.647Z,50.36
2018-07-08T08:12:10.239Z,49.98
2018-07-08T08:13:15.190Z,49.69
2018-07-08T08:14:22.806Z,49.66
2018-07-08T08:15:28.031Z,49.44
2018-07-08T08:16:32.623Z,49.05
2018-07-08T08:17:38.792Z,48.78
2018-07-08T08:18:43.465Z,48.41
2018-07-08T08:19:48.126Z,48.49
2018-07-08T08:20:54.012Z,48.58
2018-07-08T08:22:01.307Z,48.82
2018-07-08T08:23:06.886Z,49.08
2018-07-08T08:24:11.758Z,48.86
2018-07-08T08:25:21.747Z,48.94
2018-07-08T08:26:27.486Z,48.60
2018-07-08T08:27:34.269Z,48.39
2018-07-08T08:28:40.104Z,48.68
2018-07-08T08:29:52.494Z,48.05
2018-07-08T08:30:58.116Z,48.07
2018-07-08T08:32:03.321Z,48.64
2018-07-08T08:33:10.240Z,47.74
2018-07-08T08:35:20.349Z,47.89
2018-07-08T08:36:25.158Z,47.47
2018-07-08T08:37:32.430Z,47.33
2018-07-08T08:38:38.625Z,46.83
2018-07-08T08:39:43.756Z,46.57
2018-07-08T08:40:48.563Z,46.42
2018-07-08T08:41:53.122Z,46.54
2018-07-08T08:43:01.166Z,45.30
2018-07-08T08:44:05.681Z,45.31
2018-07-08T08:45:11.100Z,45.86
2018-07-08T08:46:16.339Z,45.78
2018-07-08T08:47:21.231Z,45.16
2018-07-08T08:48:26.875Z,43.40
2018-07-08T08:49:33.288Z,43.90
2018-07-08T08:50:39.089Z,44.27
2018-07-08T08:51:46.161Z,43.47
2018-07-08T08:52:52.660Z,43.14
2018-07-08T08:54:04.209Z,43.04
2018-07-08T08:55:13.420Z,42.34
2018-07-08T08:56:20.203Z,42.40
2018-07-08T08:57:25.976Z,42.21
2018-07-08T08:59:50.287Z,41.97
2018-07-08T09:01:02.380Z,41.98
2018-07-08T09:02:10.622Z,42.02
2018-07-08T09:03:19.230Z,41.30
2018-07-08T09:04:24.957Z,41.09
2018-07-08T09:05:36.414Z,40.87
2018-07-08T09:06:42.657Z,40.66
2018-07-08T09:07:51.629Z,40.34
2018-07-08T09:09:01.469Z,40.92
2018-07-08T09:10:09.981Z,40.12
2018-07-08T09:11:14.779Z,39.91
2018-07-08T09:12:21.462Z,40.31
2018-07-08T09:13:29.664Z,39.98
2018-07-08T09:14:35.413Z,39.90
2018-07-08T09:15:40.726Z,39.79
2018-07-08T09:16:45.619Z,40.34
2018-07-08T09:17:53.434Z,40.16
2018-07-08T09:18:59.432Z,39.96
2018-07-08T09:20:04.964Z,39.44
2018-07-08T09:21:12.319Z,39.15
2018-07-08T09:22:21.216Z,38.85
2018-07-08T09:23:27.616Z,38.59
2018-07-08T09:24:32.264Z,38.51
2018-07-08T09:25:40.253Z,38.55
2018-07-08T09:26:44.907Z,39.01
2018-07-08T09:27:49.759Z,38.10
2018-07-08T09:28:56.163Z,38.70
2018-07-08T09:30:03.420Z,38.38
2018-07-08T09:31:09.470Z,38.62
2018-07-08T09:32:15.756Z,37.80
2018-07-08T09:33:23.992Z,37.83
2018-07-08T09:34:33.570Z,38.35
2018-07-08T09:35:43.792Z,37.66
2018-07-08T09:36:52.928Z,37.54
2018-07-08T09:38:00.390Z,37.55
2018-07-08T09:41:48.706Z,37.34
2018-07-08T09:42:53.637Z,37.32
2018-07-08T09:44:00.499Z,37.63
2018-07-08T09:45:06.233Z,36.56
2018-07-08T09:46:11.888Z,36.84
2018-07-08T09:47:16.609Z,36.69
2018-07-08T09:48:27.654Z,36.66
2018-07-08T09:49:35.323Z,36.64
2018-07-08T09:50:41.585Z,37.26
2018-07-08T09:51:47.734Z,37.29
2018-07-08T09:52:54.474Z,36.88
2018-07-08T09:54:00.464Z,36.97
2018-07-08T09:55:09.372Z,36.11
2018-07-08T09:56:19.695Z,36.11
2018-07-08T09:57:24.730Z,36.20
2018-07-08T09:58:30.889Z,36.24
2018-07-08T09:59:37.476Z,36.83
2018-07-08T10:00:53.218Z,36.14
2018-07-08T10:01:58.985Z,36.34
2018-07-08T10:03:03.664Z,35.82
2018-07-08T10:04:11.609Z,35.98
2018-07-08T10:05:19.581Z,35.48
2018-07-08T10:06:29.038Z,35.74
2018-07-08T10:07:36.082Z,35.31
2018-07-08T10:08:41.381Z,35.69
2018-07-08T10:09:46.846Z,35.96
2018-07-08T10:10:55.419Z,36.35
2018-07-08T10:17:35.194Z,36.22
2018-07-08T10:18:41.308Z,35.50
2018-07-08T10:19:49.951Z,35.66
2018-07-08T10:20:55.421Z,35.60
2018-07-08T10:22:03.316Z,35.50
2018-07-08T10:23:12.089Z,35.22
2018-07-08T10:24:19.371Z,34.81
2018-07-08T10:25:25.469Z,35.61
2018-07-08T10:26:29.990Z,35.36
2018-07-08T10:27:39.652Z,34.75
2018-07-08T10:28:50.371Z,34.42
2018-07-08T10:29:55.342Z,34.72
2018-07-08T10:31:05.025Z,35.13
2018-07-08T10:32:11.354Z,34.72
2018-07-08T10:33:16.331Z,34.24
2018-07-08T10:34:24.277Z,34.63
2018-07-08T10:35:34.715Z,34.96
2018-07-08T10:36:41.892Z,33.98
2018-07-08T10:37:48.725Z,34.73
2018-07-08T10:38:54.426Z,34.32
2018-07-08T10:40:06.244Z,34.37
2018-07-08T10:41:13.940Z,34.83
2018-07-08T10:42:20.978Z,34.35
2018-07-08T10:43:29.312Z,33.60
2018-07-08T10:44:37.803Z,33.78
2018-07-08T10:45:46.621Z,33.74
2018-07-08T10:46:55.117Z,33.58
2018-07-08T10:48:01.273Z,33.62
2018-07-08T10:49:07.634Z,33.79
2018-07-08T10:50:23.292Z,33.42
2018-07-08T10:51:29.705Z,33.54
2018-07-08T10:52:34.378Z,33.41
2018-07-08T10:53:39.722Z,33.50
2018-07-08T10:54:49.522Z,33.50
2018-07-08T10:55:54.871Z,33.77
2018-07-08T10:57:03.536Z,33.64
2018-07-08T10:58:08.709Z,33.51
2018-07-08T10:59:22.724Z,33.55
2018-07-08T11:00:32.423Z,33.76
2018-07-08T11:02:01.492Z,34.24
2018-07-08T11:03:07.682Z,33.95
2018-07-08T11:04:13.614Z,34.15
2018-07-08T11:05:26.007Z,33.06
2018-07-08T11:06:55.383Z,33.53
2018-07-08T11:08:12.901Z,33.18
2018-07-08T11:09:20.841Z,33.53
2018-07-08T11:10:28.569Z,33.15
2018-07-08T11:11:40.392Z,33.70
2018-07-08T11:12:54.528Z,34.31
2018-07-08T11:14:02.416Z,33.79
2018-07-08T11:15:08.538Z,33.59
2018-07-08T11:16:13.788Z,33.73
2018-07-08T11:17:22.899Z,33.80
2018-07-08T11:18:31.266Z,33.54
2018-07-08T11:19:36.762Z,33.56
2018-07-08T11:20:42.664Z,33.78
2018-07-08T11:21:58.324Z,34.34
2018-07-08T11:23:04.742Z,33.88
2018-07-08T11:24:13.809Z,34.14
2018-07-08T11:25:25.740Z,33.70
2018-07-08T11:26:33.952Z,33.24
2018-07-08T11:27:40.687Z,33.55
2018-07-08T11:28:47.611Z,33.60
2018-07-08T11:29:53.936Z,33.45
2018-07-08T11:31:01.984Z,33.31
2018-07-08T11:32:10.472Z,33.25
2018-07-08T11:33:16.056Z,33.27
2018-07-08T11:34:24.433Z,33.09
2018-07-08T11:35:29.372Z,33.34
2018-07-08T11:36:41.669Z,33.38
2018-07-08T11:37:46.643Z,32.57
2018-07-08T11:38:57.538Z,32.07
2018-07-08T11:40:05.299Z,32.25
2018-07-08T11:41:34.947Z,32.37
2018-07-08T11:42:40.267Z,32.58
2018-07-08T11:43:47.235Z,32.43
2018-07-08T11:44:53.384Z,32.38
2018-07-08T11:45:59.669Z,32.66
2018-07-08T11:47:05.247Z,32.60
2018-07-08T11:48:14.454Z,32.70
2018-07-08T11:49:20.006Z,32.39
2018-07-08T11:50:26.436Z,32.04
2018-07-08T11:51:33.152Z,32.46
2018-07-08T11:52:39.292Z,32.34
2018-07-08T11:53:45.947Z,31.97
2018-07-08T11:54:51.005Z,32.30
2018-07-08T11:56:05.200Z,31.77
2018-07-08T11:57:10.815Z,31.91
2018-07-08T11:58:20.099Z,31.81
2018-07-08T11:59:29.291Z,32.11
2018-07-08T12:00:35.606Z,31.56
2018-07-08T12:01:40.747Z,32.26
2018-07-08T12:02:45.474Z,32.03
2018-07-08T12:03:50.843Z,32.25
2018-07-08T12:08:06.659Z,31.51
2018-07-08T12:09:11.688Z,31.23
2018-07-08T12:10:19.530Z,31.00
2018-07-08T12:11:32.424Z,31.85
2018-07-08T12:12:43.231Z,31.16
2018-07-08T12:13:51.166Z,31.34
2018-07-08T12:14:57.101Z,31.07
2018-07-08T12:16:04.485Z,31.04
2018-07-08T12:17:23.272Z,31.53
2018-07-08T12:18:35.383Z,31.88
2018-07-08T12:19:43.067Z,31.90
2018-07-08T12:20:49.517Z,31.64
2018-07-08T12:21:55.818Z,30.72
2018-07-08T12:23:03.428Z,31.06
2018-07-08T12:24:12.111Z,31.57
2018-07-08T12:25:18.597Z,31.26
2018-07-08T12:26:23.156Z,30.95
2018-07-08T12:27:28.319Z,31.31
2018-07-08T12:28:34.418Z,30.94
2018-07-08T12:29:39.734Z,30.87
2018-07-08T12:30:47.228Z,31.33
2018-07-08T12:31:55.463Z,31.08
2018-07-08T12:33:02.054Z,31.60
2018-07-08T12:34:07.206Z,31.47
2018-07-08T12:35:12.839Z,31.65
2018-07-08T12:36:19.483Z,31.48
2018-07-08T12:37:25.945Z,31.06
2018-07-08T12:38:30.504Z,30.45
2018-07-08T12:39:36.470Z,30.59
2018-07-08T12:40:43.298Z,30.87
2018-07-08T12:41:51.074Z,30.76
2018-07-08T12:42:56.645Z,30.66
2018-07-08T12:44:05.670Z,30.54
2018-07-08T12:45:14.872Z,30.84
2018-07-08T12:46:21.298Z,31.04
2018-07-08T12:47:27.462Z,30.62
2018-07-08T12:48:38.326Z,30.90
2018-07-08T12:49:47.003Z,30.53
2018-07-08T12:50:56.068Z,30.50
2018-07-08T12:52:01.464Z,30.25
2018-07-08T12:53:10.140Z,30.34
2018-07-08T12:54:19.685Z,30.39
2018-07-08T12:55:27.242Z,30.35
2018-07-08T12:56:35.795Z,30.21
2018-07-08T12:57:41.279Z,30.66
2018-07-08T12:58:46.931Z,30.20
2018-07-08T12:59:54.471Z,30.34
2018-07-08T13:00:59.999Z,30.47
2018-07-08T13:02:05.149Z,31.03
2018-07-08T13:03:16.214Z,30.50
2018-07-08T13:04:28.207Z,30.31
2018-07-08T13:05:37.362Z,30.12
2018-07-08T13:06:44.027Z,30.32
2018-07-08T13:07:51.893Z,29.95
2018-07-08T13:09:01.905Z,30.05
2018-07-08T13:10:17.337Z,30.16
2018-07-08T13:11:30.414Z,30.14
2018-07-08T13:12:42.895Z,30.20
2018-07-08T13:13:50.025Z,30.78
2018-07-08T13:15:03.510Z,29.70
2018-07-08T13:16:11.276Z,29.83
2018-07-08T13:17:19.856Z,29.73
2018-07-08T13:18:26.044Z,29.37
2018-07-08T13:19:33.259Z,29.71
2018-07-08T13:20:43.149Z,30.20
2018-07-08T13:21:49.703Z,30.06
2018-07-08T13:22:55.172Z,30.10
2018-07-08T13:24:01.340Z,29.46
2018-07-08T13:25:06.361Z,29.66
2018-07-08T13:26:13.029Z,29.20
2018-07-08T13:27:23.746Z,29.50
2018-07-08T13:28:31.639Z,29.09
2018-07-08T13:29:38.218Z,29.96
2018-07-08T13:30:46.255Z,29.99
2018-07-08T13:31:55.418Z,30.05
2018-07-08T13:33:00.793Z,29.78
2018-07-08T13:34:09.870Z,29.45
2018-07-08T13:35:14.974Z,29.39
2018-07-08T13:36:20.032Z,29.40
2018-07-08T13:37:25.693Z,29.81
2018-07-08T13:38:30.376Z,29.35
2018-07-08T13:39:37.095Z,29.10
2018-07-08T13:40:44.043Z,29.08
2018-07-08T13:41:49.695Z,29.98
2018-07-08T13:42:54.332Z,29.47
2018-07-08T13:44:00.553Z,29.27
2018-07-08T13:45:08.053Z,29.10
2018-07-08T13:46:15.250Z,29.94
2018-07-08T13:47:23.270Z,29.86
2018-07-08T13:48:30.835Z,29.71
2018-07-08T13:49:36.935Z,30.14
2018-07-08T13:50:42.710Z,30.07
2018-07-08T13:51:48.710Z,29.58
2018-07-08T13:52:54.817Z,28.88
2018-07-08T13:54:00.637Z,28.91
2018-07-08T13:55:06.991Z,28.11
2018-07-08T13:56:14.283Z,28.84
2018-07-08T13:57:20.014Z,27.68
2018-07-08T13:58:25.894Z,27.73
2018-07-08T13:59:36.037Z,28.26
2018-07-08T14:00:42.466Z,28.15
2018-07-08T14:01:50.207Z,28.46
2018-07-08T14:02:58.621Z,27.61
2018-07-08T14:04:07.321Z,27.97
2018-07-08T14:05:16.343Z,28.72
2018-07-08T14:06:25.605Z,28.17
2018-07-08T14:07:34.423Z,28.29
2018-07-08T14:08:40.694Z,27.74
2018-07-08T14:09:49.149Z,28.33
2018-07-08T14:10:53.794Z,28.13
2018-07-08T14:12:00.274Z,27.93
2018-07-08T14:13:08.106Z,28.90
2018-07-08T14:14:14.419Z,28.61
2018-07-08T14:15:19.293Z,28.77
2018-07-08T14:16:24.510Z,27.82
2018-07-08T14:17:31.894Z,28.27
2018-07-08T14:18:37.107Z,27.87
2018-07-08T14:19:42.562Z,27.48
2018-07-08T14:20:48.772Z,27.79
2018-07-08T14:21:56.587Z,26.79
2018-07-08T14:23:01.364Z,26.93
2018-07-08T14:24:09.116Z,26.81
2018-07-08T14:25:14.433Z,26.09
2018-07-08T14:26:20.264Z,26.92
2018-07-08T14:27:25.794Z,26.36
2018-07-08T14:28:30.422Z,26.06
2018-07-08T14:29:35.119Z,25.95